Berkeley County Airport

Airport
ICAO code: 
KMKS
IATA Code: 
-
Summary
ICAO Region: 
NAM
Territory: 
Location: 
Moncks Corner, South Carolina
Serving: 
Moncks Corner
Elevation: 
73 ft
Coordinates: 
Aerial View: 
33° 11' 9.999" N, 80° 2' 7.99" W
Metar
Observation
KMKS 021535Z AUTO 00000KT 10SM CLR 17/06 A3012 RMK AO2
Station
BERKELEY MONCKS
Date/Time
2021-12-02 15:35:00
Wind direction
Wind speed
00 kts
Lowest cloud amount
n/a
Temperature
17°C
Dew point
6°C
Humidity
48%
Weather condition
n/a

A public-use airport in Berkeley County, South Carolina, United States. It is located 1 nm southwest of the central business district of Moncks Corner, South Carolina.

Climatology

Humid “subtropical” climate (Köppen climate classification Cfa) - characterized by hot, humid summers and cool winters. Significant amounts of precipitation occur in all seasons in most areas. Winter rainfall (and sometimes snowfall) is associated with large storms that the westerlies steer from west to east. Most summer rainfall occurs during thunderstorms and occasional tropical storms (hurricanes).

Runways

Designator Length Width Surface Rops
5/23 1326 23 ASP No/No
Airport map: 
Aerial View: 

Accidents and Serious Incidents at or in the vicinity of KMKS

SKYbrary Partners:

Safety knowledge contributed by: